createdAt,value
2023-09-11T00:02:22.180Z,16.80
2023-09-11T00:07:26.047Z,16.75
2023-09-11T00:12:29.593Z,16.71
2023-09-11T00:17:35.385Z,16.68
2023-09-11T00:22:39.046Z,16.71
2023-09-11T00:27:42.202Z,16.68
2023-09-11T00:32:46.804Z,16.69
2023-09-11T00:37:50.058Z,16.67
2023-09-11T00:42:53.267Z,16.60
2023-09-11T00:47:57.962Z,16.65
2023-09-11T00:53:01.770Z,16.77
2023-09-11T00:58:05.334Z,16.83
2023-09-11T01:03:10.110Z,16.73
2023-09-11T01:08:13.789Z,16.60
2023-09-11T01:13:17.667Z,16.50
2023-09-11T01:18:29.540Z,16.45
2023-09-11T01:23:52.911Z,16.46
2023-09-11T01:29:16.247Z,16.44
2023-09-11T01:34:19.479Z,16.35
2023-09-11T01:39:22.694Z,16.31
2023-09-11T01:44:40.026Z,16.28
2023-09-11T01:49:45.229Z,16.32
2023-09-11T01:54:50.099Z,16.39
2023-09-11T01:59:54.700Z,16.34
2023-09-11T02:04:58.278Z,16.30
2023-09-11T02:10:02.014Z,16.37
2023-09-11T02:15:08.255Z,16.41
2023-09-11T02:20:11.999Z,16.42
2023-09-11T02:25:15.353Z,16.39
2023-09-11T02:30:19.895Z,16.31
2023-09-11T02:35:23.204Z,16.28
2023-09-11T02:40:26.788Z,16.29
2023-09-11T02:45:31.296Z,16.27
2023-09-11T02:50:34.764Z,16.25
2023-09-11T02:55:38.845Z,16.19
2023-09-11T03:00:43.762Z,16.11
2023-09-11T03:05:47.029Z,16.00
2023-09-11T03:10:50.231Z,15.89
2023-09-11T03:15:54.825Z,15.79
2023-09-11T03:20:58.091Z,15.71
2023-09-11T03:26:01.725Z,15.63
2023-09-11T03:31:06.177Z,15.55
2023-09-11T03:36:09.578Z,15.48
2023-09-11T03:41:12.800Z,15.45
2023-09-11T03:46:17.779Z,15.38
2023-09-11T03:51:21.017Z,15.39
2023-09-11T03:56:24.322Z,15.42
2023-09-11T04:01:29.423Z,15.39
2023-09-11T04:06:32.659Z,15.35
2023-09-11T04:11:36.191Z,15.36
2023-09-11T04:16:40.841Z,15.38
2023-09-11T04:21:44.004Z,15.45
2023-09-11T04:26:47.184Z,15.52
2023-09-11T04:31:51.757Z,15.61
2023-09-11T04:36:54.927Z,15.58
2023-09-11T04:41:58.209Z,15.68
2023-09-11T04:47:03.145Z,15.77
2023-09-11T04:52:06.523Z,15.82
2023-09-11T04:57:09.672Z,15.82
2023-09-11T05:02:14.145Z,15.80
2023-09-11T05:07:17.288Z,15.87
2023-09-11T05:12:20.563Z,15.88
2023-09-11T05:17:25.200Z,15.82
2023-09-11T05:22:28.395Z,15.78
2023-09-11T05:27:31.558Z,15.90
2023-09-11T05:32:36.047Z,15.95
2023-09-11T05:37:39.725Z,15.98
2023-09-11T05:42:43.897Z,16.05
2023-09-11T05:47:48.635Z,16.12
2023-09-11T05:52:51.864Z,16.20
2023-09-11T05:57:55.001Z,16.33
2023-09-11T06:02:59.538Z,16.45
2023-09-11T06:08:03.749Z,16.57
2023-09-11T06:13:07.144Z,16.72
2023-09-11T06:18:14.135Z,16.89
2023-09-11T06:23:17.892Z,17.11
2023-09-11T06:28:22.004Z,17.27
2023-09-11T06:33:40.889Z,17.44
2023-09-11T06:38:45.151Z,17.63
2023-09-11T06:43:48.841Z,17.79
2023-09-11T06:48:53.712Z,18.03
2023-09-11T06:53:57.343Z,18.23
2023-09-11T06:59:00.764Z,18.51
2023-09-11T07:04:05.762Z,18.86
2023-09-11T07:09:09.531Z,19.48
2023-09-11T07:14:14.074Z,20.44
2023-09-11T07:19:18.591Z,21.64
2023-09-11T07:24:21.847Z,22.52
2023-09-11T07:29:28.225Z,23.05
2023-09-11T07:34:32.859Z,24.40
2023-09-11T07:39:36.036Z,24.64
2023-09-11T07:44:39.164Z,25.21
2023-09-11T07:49:43.652Z,25.09
2023-09-11T07:54:46.836Z,25.50
2023-09-11T07:59:50.070Z,25.59
2023-09-11T08:04:54.603Z,26.01
2023-09-11T08:10:00.017Z,26.23
2023-09-11T08:15:04.501Z,26.60
2023-09-11T08:20:10.881Z,26.74
2023-09-11T08:25:14.864Z,26.54
2023-09-11T08:30:18.381Z,26.64
2023-09-11T08:35:22.855Z,26.80
2023-09-11T08:40:30.997Z,27.87
2023-09-11T08:45:34.253Z,28.24
2023-09-11T08:50:51.836Z,27.56
2023-09-11T08:55:57.770Z,28.25
2023-09-11T09:01:03.486Z,28.01
2023-09-11T09:06:08.412Z,28.50
2023-09-11T09:11:12.569Z,28.80
2023-09-11T09:16:15.802Z,28.68
2023-09-11T09:21:26.752Z,28.84
2023-09-11T09:26:31.055Z,29.23
2023-09-11T09:31:34.833Z,29.41
2023-09-11T09:36:49.979Z,29.19
2023-09-11T09:41:54.894Z,29.16
2023-09-11T09:46:58.961Z,29.59
2023-09-11T09:52:05.606Z,29.92
2023-09-11T09:57:12.192Z,29.99
2023-09-11T10:02:16.109Z,30.19
2023-09-11T10:07:37.178Z,30.27
2023-09-11T10:12:40.602Z,30.95
2023-09-11T10:17:44.780Z,30.48
2023-09-11T10:22:49.853Z,30.96
2023-09-11T10:27:59.113Z,31.14
2023-09-11T10:33:04.663Z,30.56
2023-09-11T10:38:10.672Z,31.19
2023-09-11T10:43:14.124Z,31.12
2023-09-11T10:48:30.515Z,31.22
2023-09-11T10:53:35.927Z,31.59
2023-09-11T10:58:41.121Z,31.79
2023-09-11T11:03:45.113Z,31.69
2023-09-11T11:08:50.768Z,32.01
2023-09-11T11:14:13.815Z,31.86
2023-09-11T11:19:26.854Z,31.84
2023-09-11T11:24:36.104Z,32.33
2023-09-11T11:29:39.467Z,32.64
2023-09-11T11:34:46.540Z,32.18
2023-09-11T11:39:51.904Z,32.20
2023-09-11T11:44:56.009Z,32.19
2023-09-11T11:49:59.713Z,32.21
2023-09-11T11:55:21.426Z,32.72
2023-09-11T12:00:24.817Z,32.26
2023-09-11T12:05:28.835Z,32.65
2023-09-11T12:10:34.265Z,32.91
2023-09-11T12:15:38.011Z,32.67
2023-09-11T12:20:53.445Z,32.58
2023-09-11T12:25:59.931Z,32.85
2023-09-11T12:31:04.109Z,33.11
2023-09-11T12:36:07.898Z,32.74
2023-09-11T12:41:13.378Z,32.43
2023-09-11T12:46:17.554Z,32.74
2023-09-11T12:51:21.117Z,33.02
2023-09-11T12:56:25.834Z,32.83
2023-09-11T13:01:33.473Z,33.00
2023-09-11T13:06:37.314Z,32.80
2023-09-11T13:11:42.881Z,32.35
2023-09-11T13:16:46.960Z,32.13
2023-09-11T13:21:50.304Z,32.17
2023-09-11T13:26:55.250Z,32.51
2023-09-11T13:31:58.649Z,32.29
2023-09-11T13:37:02.076Z,32.63
2023-09-11T13:42:06.984Z,32.66
2023-09-11T13:47:10.487Z,32.62
2023-09-11T13:52:14.262Z,32.21
2023-09-11T13:57:19.024Z,32.32
2023-09-11T14:02:22.555Z,32.54
2023-09-11T14:07:27.540Z,32.24
2023-09-11T14:12:32.394Z,31.92
2023-09-11T14:17:35.956Z,32.33
2023-09-11T14:22:40.852Z,31.66
2023-09-11T14:27:45.878Z,31.78
2023-09-11T14:32:50.168Z,31.89
2023-09-11T14:37:54.116Z,31.28
2023-09-11T14:42:59.251Z,31.12
2023-09-11T14:48:02.923Z,31.24
2023-09-11T14:53:06.362Z,30.92
2023-09-11T14:58:11.475Z,30.77
2023-09-11T15:03:15.036Z,30.70
2023-09-11T15:08:18.534Z,30.28
2023-09-11T15:13:23.277Z,30.47
2023-09-11T15:18:27.409Z,30.15
2023-09-11T15:23:31.128Z,29.84
2023-09-11T15:28:36.056Z,29.69
2023-09-11T15:33:39.527Z,29.47
2023-09-11T15:38:44.898Z,29.25
2023-09-11T15:43:50.232Z,29.02
2023-09-11T15:48:53.741Z,28.78
2023-09-11T15:53:57.022Z,28.63
2023-09-11T15:59:01.881Z,28.46
2023-09-11T16:04:05.398Z,28.10
2023-09-11T16:09:08.873Z,28.11
2023-09-11T16:14:13.736Z,27.76
2023-09-11T16:19:19.957Z,27.54
2023-09-11T16:24:23.426Z,27.30
2023-09-11T16:29:28.298Z,26.79
2023-09-11T16:34:31.757Z,26.40
2023-09-11T16:39:35.341Z,26.02
2023-09-11T16:44:40.603Z,25.63
2023-09-11T16:49:44.277Z,25.37
2023-09-11T16:54:47.926Z,25.11
2023-09-11T16:59:53.100Z,24.89
2023-09-11T17:04:57.161Z,24.69
2023-09-11T17:10:00.574Z,24.49
2023-09-11T17:15:06.371Z,24.24
2023-09-11T17:20:10.913Z,24.02
2023-09-11T17:25:14.763Z,23.75
2023-09-11T17:30:19.571Z,23.59
2023-09-11T17:35:23.028Z,23.41
2023-09-11T17:40:26.480Z,23.29
2023-09-11T17:45:31.596Z,23.04
2023-09-11T17:50:35.276Z,22.84
2023-09-11T17:55:38.556Z,22.63
2023-09-11T18:00:43.371Z,22.46
2023-09-11T18:05:51.669Z,22.40
2023-09-11T18:10:55.377Z,22.34
2023-09-11T18:16:00.039Z,22.21
2023-09-11T18:21:03.746Z,22.10
2023-09-11T18:26:07.315Z,22.02
2023-09-11T18:31:12.170Z,21.94
2023-09-11T18:36:16.608Z,21.79
2023-09-11T18:41:20.383Z,21.61
2023-09-11T18:46:25.684Z,21.48
2023-09-11T18:51:29.890Z,21.34
2023-09-11T18:56:33.342Z,21.27
2023-09-11T19:01:39.832Z,21.19
2023-09-11T19:06:44.803Z,21.15
2023-09-11T19:11:48.279Z,21.05
2023-09-11T19:16:53.970Z,20.97
2023-09-11T19:21:57.549Z,20.84
2023-09-11T19:27:00.858Z,20.74
2023-09-11T19:32:06.986Z,20.63
2023-09-11T19:37:10.403Z,20.55
2023-09-11T19:42:14.719Z,20.44
2023-09-11T19:47:19.408Z,20.31
2023-09-11T19:52:22.997Z,20.20
2023-09-11T19:57:27.557Z,20.12
2023-09-11T20:02:32.791Z,20.07
2023-09-11T20:07:36.420Z,20.08
2023-09-11T20:12:39.671Z,20.02
2023-09-11T20:17:44.287Z,19.94
2023-09-11T20:22:47.695Z,19.87
2023-09-11T20:27:50.983Z,19.83
2023-09-11T20:32:55.828Z,19.73
2023-09-11T20:37:59.199Z,19.68
2023-09-11T20:43:02.453Z,19.62
2023-09-11T20:48:07.741Z,19.57
2023-09-11T20:53:11.115Z,19.51
2023-09-11T20:58:14.448Z,19.45
2023-09-11T21:03:19.344Z,19.39
2023-09-11T21:08:22.938Z,19.30
2023-09-11T21:13:27.318Z,19.23
2023-09-11T21:18:32.035Z,19.17
2023-09-11T21:23:35.689Z,19.14
2023-09-11T21:28:40.361Z,19.08
2023-09-11T21:33:45.271Z,19.01
2023-09-11T21:38:48.556Z,18.92
2023-09-11T21:43:52.089Z,18.83
2023-09-11T21:48:57.092Z,18.77
2023-09-11T21:54:13.417Z,18.73
2023-09-11T21:59:17.746Z,18.69
2023-09-11T22:04:22.301Z,18.64
2023-09-11T22:09:25.641Z,18.61
2023-09-11T22:14:28.856Z,18.62
2023-09-11T22:19:33.407Z,18.55
2023-09-11T22:24:36.564Z,18.46
2023-09-11T22:29:39.731Z,18.40
2023-09-11T22:34:44.488Z,18.36
2023-09-11T22:39:48.185Z,18.33
2023-09-11T22:44:52.334Z,18.29
2023-09-11T22:49:57.694Z,18.24
2023-09-11T22:55:01.331Z,18.21
2023-09-11T23:00:05.758Z,18.17
2023-09-11T23:05:10.999Z,18.10
2023-09-11T23:10:14.196Z,18.03
2023-09-11T23:15:17.639Z,18.00
2023-09-11T23:20:22.243Z,17.96
2023-09-11T23:25:25.359Z,17.92
2023-09-11T23:30:29.344Z,17.93
2023-09-11T23:35:34.030Z,17.90
2023-09-11T23:40:37.220Z,17.84
2023-09-11T23:45:40.663Z,17.79
2023-09-11T23:50:46.681Z,17.73
2023-09-11T23:55:50.000Z,17.68
